Gentry, AR (72734)

10:06 AM CST on December 08, 2016 (GMT -0600)
Gentry AR Weather | | Change Station

Elev 1204 ft 36.25 °N, 94.49 °W | Updated 1 minute ago

Mostly Cloudy
Mostly Cloudy
21.8 °F
Feels Like 13 °F
N
7.0
Wind Variable Wind from NW
Gusts 11.0 mph

Today
High -- | Low -- °F
--% Chance of Precip.
Yesterday
High -- | Low -- °F
Precip. -- in
Pressure 30.63 in
Visibility 10.0 miles
Clouds Clear
Windchill 13 °F
Dew Point 13 °F
Humidity 68%
Rainfall 0.00 in
Snow Depth Not available.
7:17 AM 5:02 PM
Waxing Gibbous, 64% visible
METAR KSLG 081555Z AUTO 35014KT 10SM CLR M04/M12 A3063 RMK AO1
Pressure 30.63 in
Visibility 10.0 miles
Clouds Clear
Windchill 13 °F
Dew Point 13 °F
Humidity 68%
Rainfall 0.00 in
Snow Depth Not available.
7:17 AM 5:02 PM
Waxing Gibbous, 64% visible
METAR KSLG 081555Z AUTO 35014KT 10SM CLR M04/M12 A3063 RMK AO1

10-Day Weather Forecast

Almanac

Astronomy

Dec. 08, 2016 Rise Set
Actual Time
Civil Twilight
Nautical Twilight
Astronomical Twilight
Moon
Length of Visible Light
Length of Day
Tomorrow will be .
, % of the Moon is Illuminated

Today's Extremes

State Highs State Lows

Community

WunderPhotos

Upload Photos

1,956,274 photos uploaded!

WunderBlog® & News

Nearby

Air Quality

  Air Quality AQ Index Pollutant
Not available.

Snow Depth

Station Depth Elevation

Earthquake Activity

City Distance Mag. Time & Date
Minimum magnitude displayed is 2.5.

Coastal Water Temperatures

Place Temperature

Stations

Nearby Weather Stations

Station Location Temp. Windchill Dew Point Humidity Wind Precip. Elev Updated Type
                   

Watches & Warnings

There are currently no watches in effect.